sensor_id;sensor_type;location;lat;lon;timestamp;temperature;humidity
5705;DHT22;2877;48.238;11.160;2022-12-20T00:00:53;-0.30;99.90
5705;DHT22;2877;48.238;11.160;2022-12-20T00:03:19;-0.30;99.90
5705;DHT22;2877;48.238;11.160;2022-12-20T00:05:45;-0.30;99.90
5705;DHT22;2877;48.238;11.160;2022-12-20T00:08:11;-0.30;99.90
5705;DHT22;2877;48.238;11.160;2022-12-20T00:10:41;-0.30;99.90
5705;DHT22;2877;48.238;11.160;2022-12-20T00:13:07;-0.30;99.90
5705;DHT22;2877;48.238;11.160;2022-12-20T00:15:33;-0.20;99.90
5705;DHT22;2877;48.238;11.160;2022-12-20T00:17:59;-0.20;99.90
5705;DHT22;2877;48.238;11.160;2022-12-20T00:20:26;-0.20;99.90
5705;DHT22;2877;48.238;11.160;2022-12-20T00:22:51;-0.20;99.90
5705;DHT22;2877;48.238;11.160;2022-12-20T00:25:18;-0.10;99.90
5705;DHT22;2877;48.238;11.160;2022-12-20T00:27:48;-0.20;99.90
5705;DHT22;2877;48.238;11.160;2022-12-20T00:30:14;-0.10;99.90
5705;DHT22;2877;48.238;11.160;2022-12-20T00:32:41;-0.10;99.90
5705;DHT22;2877;48.238;11.160;2022-12-20T00:35:07;-0.10;99.90
5705;DHT22;2877;48.238;11.160;2022-12-20T00:37:32;-0.10;99.90
5705;DHT22;2877;48.238;11.160;2022-12-20T00:39:58;0.00;99.90
5705;DHT22;2877;48.238;11.160;2022-12-20T00:42:24;0.00;99.90
5705;DHT22;2877;48.238;11.160;2022-12-20T00:44:49;0.00;99.90
5705;DHT22;2877;48.238;11.160;2022-12-20T00:47:15;0.00;99.90
5705;DHT22;2877;48.238;11.160;2022-12-20T00:49:40;0.00;99.90
5705;DHT22;2877;48.238;11.160;2022-12-20T00:52:06;0.00;99.90
5705;DHT22;2877;48.238;11.160;2022-12-20T00:54:32;0.00;99.90
5705;DHT22;2877;48.238;11.160;2022-12-20T00:56:57;0.00;99.90
5705;DHT22;2877;48.238;11.160;2022-12-20T00:59:23;-0.10;99.90
5705;DHT22;2877;48.238;11.160;2022-12-20T01:01:50;-0.10;99.90
5705;DHT22;2877;48.238;11.160;2022-12-20T01:04:16;-0.10;99.90
5705;DHT22;2877;48.238;11.160;2022-12-20T01:06:41;-0.10;99.90
5705;DHT22;2877;48.238;11.160;2022-12-20T01:09:07;-0.10;99.90
5705;DHT22;2877;48.238;11.160;2022-12-20T01:11:34;-0.10;99.90
5705;DHT22;2877;48.238;11.160;2022-12-20T01:14:11;-0.10;99.90
5705;DHT22;2877;48.238;11.160;2022-12-20T01:16:44;-0.10;99.90
5705;DHT22;2877;48.238;11.160;2022-12-20T01:19:12;-0.10;99.90
5705;DHT22;2877;48.238;11.160;2022-12-20T01:21:39;-0.10;99.90
5705;DHT22;2877;48.238;11.160;2022-12-20T01:24:15;-0.10;99.90
5705;DHT22;2877;48.238;11.160;2022-12-20T01:26:41;-0.10;99.90
5705;DHT22;2877;48.238;11.160;2022-12-20T01:29:08;-0.10;99.90
5705;DHT22;2877;48.238;11.160;2022-12-20T01:31:33;-0.10;99.90
5705;DHT22;2877;48.238;11.160;2022-12-20T01:33:59;0.00;99.90
5705;DHT22;2877;48.238;11.160;2022-12-20T01:36:30;-0.10;99.90
5705;DHT22;2877;48.238;11.160;2022-12-20T01:38:58;0.00;99.90
5705;DHT22;2877;48.238;11.160;2022-12-20T01:41:26;0.00;99.90
5705;DHT22;2877;48.238;11.160;2022-12-20T01:46:19;0.00;99.90
5705;DHT22;2877;48.238;11.160;2022-12-20T01:49:04;0.00;99.90
5705;DHT22;2877;48.238;11.160;2022-12-20T01:51:34;0.00;99.90
5705;DHT22;2877;48.238;11.160;2022-12-20T01:54:05;0.10;99.90
5705;DHT22;2877;48.238;11.160;2022-12-20T01:56:31;0.10;99.90
5705;DHT22;2877;48.238;11.160;2022-12-20T01:58:57;0.10;99.90
5705;DHT22;2877;48.238;11.160;2022-12-20T02:01:24;0.20;99.90
5705;DHT22;2877;48.238;11.160;2022-12-20T02:03:51;0.20;99.90
5705;DHT22;2877;48.238;11.160;2022-12-20T02:06:20;0.20;99.90
5705;DHT22;2877;48.238;11.160;2022-12-20T02:08:47;0.30;99.90
5705;DHT22;2877;48.238;11.160;2022-12-20T02:14:02;0.40;99.90
5705;DHT22;2877;48.238;11.160;2022-12-20T02:16:33;0.40;99.90
5705;DHT22;2877;48.238;11.160;2022-12-20T02:19:14;0.40;99.90
5705;DHT22;2877;48.238;11.160;2022-12-20T02:24:44;0.40;99.90
5705;DHT22;2877;48.238;11.160;2022-12-20T02:27:35;0.30;99.90
5705;DHT22;2877;48.238;11.160;2022-12-20T02:35:35;0.30;99.90
5705;DHT22;2877;48.238;11.160;2022-12-20T02:38:22;0.20;99.90
5705;DHT22;2877;48.238;11.160;2022-12-20T02:40:52;0.20;99.90
5705;DHT22;2877;48.238;11.160;2022-12-20T02:43:19;0.20;99.90
5705;DHT22;2877;48.238;11.160;2022-12-20T02:46:06;0.20;99.90
5705;DHT22;2877;48.238;11.160;2022-12-20T02:48:34;0.20;99.90
5705;DHT22;2877;48.238;11.160;2022-12-20T02:51:03;0.20;99.90
5705;DHT22;2877;48.238;11.160;2022-12-20T02:53:30;0.20;99.90
5705;DHT22;2877;48.238;11.160;2022-12-20T02:56:04;0.30;99.90
5705;DHT22;2877;48.238;11.160;2022-12-20T03:01:12;0.30;99.90
5705;DHT22;2877;48.238;11.160;2022-12-20T03:03:38;0.30;99.90
5705;DHT22;2877;48.238;11.160;2022-12-20T03:06:05;0.20;99.90
5705;DHT22;2877;48.238;11.160;2022-12-20T03:08:31;0.20;99.90
5705;DHT22;2877;48.238;11.160;2022-12-20T03:10:57;0.20;99.90
5705;DHT22;2877;48.238;11.160;2022-12-20T03:13:23;0.20;99.90
5705;DHT22;2877;48.238;11.160;2022-12-20T03:15:49;0.20;99.90
5705;DHT22;2877;48.238;11.160;2022-12-20T03:18:15;0.20;99.90
5705;DHT22;2877;48.238;11.160;2022-12-20T03:20:41;0.30;99.90
5705;DHT22;2877;48.238;11.160;2022-12-20T03:23:07;0.40;99.90
5705;DHT22;2877;48.238;11.160;2022-12-20T03:25:33;0.50;99.90
5705;DHT22;2877;48.238;11.160;2022-12-20T03:27:58;0.70;99.90
5705;DHT22;2877;48.238;11.160;2022-12-20T03:30:24;0.80;99.90
5705;DHT22;2877;48.238;11.160;2022-12-20T03:32:50;0.80;99.90
5705;DHT22;2877;48.238;11.160;2022-12-20T03:35:15;0.90;99.90
5705;DHT22;2877;48.238;11.160;2022-12-20T03:37:42;0.90;99.90
5705;DHT22;2877;48.238;11.160;2022-12-20T03:40:08;0.90;99.90
5705;DHT22;2877;48.238;11.160;2022-12-20T03:42:34;0.90;99.90
5705;DHT22;2877;48.238;11.160;2022-12-20T03:45:00;0.90;99.90
5705;DHT22;2877;48.238;11.160;2022-12-20T03:47:25;1.00;99.90
5705;DHT22;2877;48.238;11.160;2022-12-20T03:49:51;1.00;99.90
5705;DHT22;2877;48.238;11.160;2022-12-20T03:52:16;1.10;99.90
5705;DHT22;2877;48.238;11.160;2022-12-20T03:54:42;1.10;99.90
5705;DHT22;2877;48.238;11.160;2022-12-20T03:57:08;1.00;99.90
5705;DHT22;2877;48.238;11.160;2022-12-20T03:59:34;1.00;99.90
5705;DHT22;2877;48.238;11.160;2022-12-20T04:02:00;1.00;99.90
5705;DHT22;2877;48.238;11.160;2022-12-20T04:04:25;1.00;99.90
5705;DHT22;2877;48.238;11.160;2022-12-20T04:06:51;1.00;99.90
5705;DHT22;2877;48.238;11.160;2022-12-20T04:09:16;0.90;99.90
5705;DHT22;2877;48.238;11.160;2022-12-20T04:11:42;0.90;99.90
5705;DHT22;2877;48.238;11.160;2022-12-20T04:14:07;0.80;99.90
5705;DHT22;2877;48.238;11.160;2022-12-20T04:16:33;0.80;99.90
5705;DHT22;2877;48.238;11.160;2022-12-20T04:18:59;0.70;99.90
5705;DHT22;2877;48.238;11.160;2022-12-20T04:21:27;0.70;99.90
5705;DHT22;2877;48.238;11.160;2022-12-20T04:23:53;0.70;99.90
5705;DHT22;2877;48.238;11.160;2022-12-20T04:26:19;0.70;99.90
5705;DHT22;2877;48.238;11.160;2022-12-20T04:28:44;0.60;99.90
5705;DHT22;2877;48.238;11.160;2022-12-20T04:31:10;0.60;99.90
5705;DHT22;2877;48.238;11.160;2022-12-20T04:33:35;0.60;99.90
5705;DHT22;2877;48.238;11.160;2022-12-20T04:36:01;0.70;99.90
5705;DHT22;2877;48.238;11.160;2022-12-20T04:38:27;0.70;99.90
5705;DHT22;2877;48.238;11.160;2022-12-20T04:40:53;0.70;99.90
5705;DHT22;2877;48.238;11.160;2022-12-20T04:43:19;0.70;99.90
5705;DHT22;2877;48.238;11.160;2022-12-20T04:45:50;0.60;99.90
5705;DHT22;2877;48.238;11.160;2022-12-20T04:48:24;0.60;99.90
5705;DHT22;2877;48.238;11.160;2022-12-20T04:50:53;0.50;99.90
5705;DHT22;2877;48.238;11.160;2022-12-20T04:53:18;0.60;99.90
5705;DHT22;2877;48.238;11.160;2022-12-20T04:56:03;0.60;99.90
5705;DHT22;2877;48.238;11.160;2022-12-20T04:58:29;0.70;99.90
5705;DHT22;2877;48.238;11.160;2022-12-20T05:00:55;0.80;99.90
5705;DHT22;2877;48.238;11.160;2022-12-20T05:03:22;0.80;99.90
5705;DHT22;2877;48.238;11.160;2022-12-20T05:05:48;0.80;99.90
5705;DHT22;2877;48.238;11.160;2022-12-20T05:08:13;0.80;99.90
5705;DHT22;2877;48.238;11.160;2022-12-20T05:10:39;0.80;99.90
5705;DHT22;2877;48.238;11.160;2022-12-20T05:13:05;0.80;99.90
5705;DHT22;2877;48.238;11.160;2022-12-20T05:15:31;0.80;99.90
5705;DHT22;2877;48.238;11.160;2022-12-20T05:17:56;0.70;99.90
5705;DHT22;2877;48.238;11.160;2022-12-20T05:20:28;0.70;99.90
5705;DHT22;2877;48.238;11.160;2022-12-20T05:22:54;0.70;99.90
5705;DHT22;2877;48.238;11.160;2022-12-20T05:25:42;0.60;99.90
5705;DHT22;2877;48.238;11.160;2022-12-20T05:28:27;0.60;99.90
5705;DHT22;2877;48.238;11.160;2022-12-20T05:30:52;0.60;99.90
5705;DHT22;2877;48.238;11.160;2022-12-20T05:33:18;0.60;99.90
5705;DHT22;2877;48.238;11.160;2022-12-20T05:35:43;0.60;99.90
5705;DHT22;2877;48.238;11.160;2022-12-20T05:38:09;0.60;99.90
5705;DHT22;2877;48.238;11.160;2022-12-20T05:40:34;0.60;99.90
5705;DHT22;2877;48.238;11.160;2022-12-20T05:43:00;0.60;99.90
5705;DHT22;2877;48.238;11.160;2022-12-20T05:45:26;0.70;99.90
5705;DHT22;2877;48.238;11.160;2022-12-20T05:47:52;0.70;99.90
5705;DHT22;2877;48.238;11.160;2022-12-20T05:50:17;0.70;99.90
5705;DHT22;2877;48.238;11.160;2022-12-20T05:52:43;0.80;99.90
5705;DHT22;2877;48.238;11.160;2022-12-20T05:55:09;0.80;99.90
5705;DHT22;2877;48.238;11.160;2022-12-20T05:57:34;0.80;99.90
5705;DHT22;2877;48.238;11.160;2022-12-20T06:00:00;0.80;99.90
5705;DHT22;2877;48.238;11.160;2022-12-20T06:02:26;0.80;99.90
5705;DHT22;2877;48.238;11.160;2022-12-20T06:04:52;0.90;99.90
5705;DHT22;2877;48.238;11.160;2022-12-20T06:07:18;0.90;99.90
5705;DHT22;2877;48.238;11.160;2022-12-20T06:09:43;0.90;99.90
5705;DHT22;2877;48.238;11.160;2022-12-20T06:12:09;0.90;99.90
5705;DHT22;2877;48.238;11.160;2022-12-20T06:14:35;0.90;99.90
5705;DHT22;2877;48.238;11.160;2022-12-20T06:17:01;0.90;99.90
5705;DHT22;2877;48.238;11.160;2022-12-20T06:19:26;0.90;99.90
5705;DHT22;2877;48.238;11.160;2022-12-20T06:21:52;0.90;99.90
5705;DHT22;2877;48.238;11.160;2022-12-20T06:24:17;1.00;99.90
5705;DHT22;2877;48.238;11.160;2022-12-20T06:26:43;1.00;99.90
5705;DHT22;2877;48.238;11.160;2022-12-20T06:29:09;1.00;99.90
5705;DHT22;2877;48.238;11.160;2022-12-20T06:31:39;1.00;99.90
5705;DHT22;2877;48.238;11.160;2022-12-20T06:34:04;1.00;99.90
5705;DHT22;2877;48.238;11.160;2022-12-20T06:36:30;1.00;99.90
5705;DHT22;2877;48.238;11.160;2022-12-20T06:38:56;1.00;99.90
5705;DHT22;2877;48.238;11.160;2022-12-20T06:41:21;1.00;99.90
5705;DHT22;2877;48.238;11.160;2022-12-20T06:43:47;0.90;99.90
5705;DHT22;2877;48.238;11.160;2022-12-20T06:46:12;0.90;99.90
5705;DHT22;2877;48.238;11.160;2022-12-20T06:48:38;0.90;99.90
5705;DHT22;2877;48.238;11.160;2022-12-20T06:51:04;1.00;99.90
5705;DHT22;2877;48.238;11.160;2022-12-20T06:53:29;1.00;99.90
5705;DHT22;2877;48.238;11.160;2022-12-20T06:55:55;1.10;99.90
5705;DHT22;2877;48.238;11.160;2022-12-20T06:58:20;1.20;99.90
5705;DHT22;2877;48.238;11.160;2022-12-20T07:00:46;1.20;99.90
5705;DHT22;2877;48.238;11.160;2022-12-20T07:03:12;1.20;99.90
5705;DHT22;2877;48.238;11.160;2022-12-20T07:05:38;1.10;99.90
5705;DHT22;2877;48.238;11.160;2022-12-20T07:08:05;1.20;99.90
5705;DHT22;2877;48.238;11.160;2022-12-20T07:10:33;1.20;99.90
5705;DHT22;2877;48.238;11.160;2022-12-20T07:12:59;1.30;99.90
5705;DHT22;2877;48.238;11.160;2022-12-20T07:15:24;1.40;99.90
5705;DHT22;2877;48.238;11.160;2022-12-20T07:17:50;1.50;99.90
5705;DHT22;2877;48.238;11.160;2022-12-20T07:20:16;1.60;99.90
5705;DHT22;2877;48.238;11.160;2022-12-20T07:22:42;1.70;99.90
5705;DHT22;2877;48.238;11.160;2022-12-20T07:25:08;1.70;99.90
5705;DHT22;2877;48.238;11.160;2022-12-20T07:27:34;1.80;99.90
5705;DHT22;2877;48.238;11.160;2022-12-20T07:30:00;1.80;99.90
5705;DHT22;2877;48.238;11.160;2022-12-20T07:32:26;1.80;99.90
5705;DHT22;2877;48.238;11.160;2022-12-20T07:34:51;1.90;99.90
5705;DHT22;2877;48.238;11.160;2022-12-20T07:37:17;1.90;99.90
5705;DHT22;2877;48.238;11.160;2022-12-20T07:39:43;1.90;99.90
5705;DHT22;2877;48.238;11.160;2022-12-20T07:42:09;2.00;99.90
5705;DHT22;2877;48.238;11.160;2022-12-20T07:44:35;2.00;99.90
5705;DHT22;2877;48.238;11.160;2022-12-20T07:47:00;2.00;99.90
5705;DHT22;2877;48.238;11.160;2022-12-20T07:49:26;2.00;99.90
5705;DHT22;2877;48.238;11.160;2022-12-20T07:51:55;2.10;99.90
5705;DHT22;2877;48.238;11.160;2022-12-20T07:54:31;2.10;99.90
5705;DHT22;2877;48.238;11.160;2022-12-20T07:57:02;2.10;99.90
5705;DHT22;2877;48.238;11.160;2022-12-20T07:59:39;2.20;99.90
5705;DHT22;2877;48.238;11.160;2022-12-20T08:02:09;2.20;99.90
5705;DHT22;2877;48.238;11.160;2022-12-20T08:04:36;2.30;99.90
5705;DHT22;2877;48.238;11.160;2022-12-20T08:07:02;2.30;99.90
5705;DHT22;2877;48.238;11.160;2022-12-20T08:09:32;2.40;99.90
5705;DHT22;2877;48.238;11.160;2022-12-20T08:11:59;2.40;99.90
5705;DHT22;2877;48.238;11.160;2022-12-20T08:14:25;2.50;99.90
5705;DHT22;2877;48.238;11.160;2022-12-20T08:16:51;2.60;99.90
5705;DHT22;2877;48.238;11.160;2022-12-20T08:19:17;2.60;99.90
5705;DHT22;2877;48.238;11.160;2022-12-20T08:21:42;2.70;99.90
5705;DHT22;2877;48.238;11.160;2022-12-20T08:24:08;2.70;99.90
5705;DHT22;2877;48.238;11.160;2022-12-20T08:26:40;2.80;99.90
5705;DHT22;2877;48.238;11.160;2022-12-20T08:29:07;2.80;99.90
5705;DHT22;2877;48.238;11.160;2022-12-20T08:31:39;2.90;99.90
5705;DHT22;2877;48.238;11.160;2022-12-20T08:34:06;2.90;99.90
5705;DHT22;2877;48.238;11.160;2022-12-20T08:36:32;3.00;99.90
5705;DHT22;2877;48.238;11.160;2022-12-20T08:39:01;3.00;99.90
5705;DHT22;2877;48.238;11.160;2022-12-20T08:41:27;3.10;99.90
5705;DHT22;2877;48.238;11.160;2022-12-20T08:43:53;3.10;99.90
5705;DHT22;2877;48.238;11.160;2022-12-20T08:46:18;3.10;99.90
5705;DHT22;2877;48.238;11.160;2022-12-20T08:48:44;3.10;99.90
5705;DHT22;2877;48.238;11.160;2022-12-20T08:51:10;3.30;99.90
5705;DHT22;2877;48.238;11.160;2022-12-20T08:53:36;3.40;99.90
5705;DHT22;2877;48.238;11.160;2022-12-20T08:58:28;3.60;99.90
5705;DHT22;2877;48.238;11.160;2022-12-20T09:00:57;3.70;99.90
5705;DHT22;2877;48.238;11.160;2022-12-20T09:03:25;3.80;99.90
5705;DHT22;2877;48.238;11.160;2022-12-20T09:05:50;3.90;99.90
5705;DHT22;2877;48.238;11.160;2022-12-20T09:08:16;4.00;99.90
5705;DHT22;2877;48.238;11.160;2022-12-20T09:10:42;4.10;99.90
5705;DHT22;2877;48.238;11.160;2022-12-20T09:13:09;4.20;99.90
5705;DHT22;2877;48.238;11.160;2022-12-20T09:15:35;4.30;99.90
5705;DHT22;2877;48.238;11.160;2022-12-20T09:18:01;4.30;99.90
5705;DHT22;2877;48.238;11.160;2022-12-20T09:20:27;4.20;99.90
5705;DHT22;2877;48.238;11.160;2022-12-20T09:22:53;4.30;99.90
5705;DHT22;2877;48.238;11.160;2022-12-20T09:25:18;4.30;99.90
5705;DHT22;2877;48.238;11.160;2022-12-20T09:27:44;4.30;99.90
5705;DHT22;2877;48.238;11.160;2022-12-20T09:30:09;4.30;99.90
5705;DHT22;2877;48.238;11.160;2022-12-20T09:32:35;4.30;99.90
5705;DHT22;2877;48.238;11.160;2022-12-20T09:35:02;4.40;99.90
5705;DHT22;2877;48.238;11.160;2022-12-20T09:37:29;4.40;99.90
5705;DHT22;2877;48.238;11.160;2022-12-20T09:39:56;4.50;99.90
5705;DHT22;2877;48.238;11.160;2022-12-20T09:42:25;4.50;99.90
5705;DHT22;2877;48.238;11.160;2022-12-20T09:44:51;4.50;99.90
5705;DHT22;2877;48.238;11.160;2022-12-20T09:47:22;4.50;99.90
5705;DHT22;2877;48.238;11.160;2022-12-20T09:49:50;4.50;99.90
5705;DHT22;2877;48.238;11.160;2022-12-20T09:57:43;4.70;99.90
5705;DHT22;2877;48.238;11.160;2022-12-20T10:00:16;4.70;99.90
5705;DHT22;2877;48.238;11.160;2022-12-20T10:02:42;4.70;99.90
5705;DHT22;2877;48.238;11.160;2022-12-20T10:05:49;4.80;99.90
5705;DHT22;2877;48.238;11.160;2022-12-20T10:14:29;4.90;99.90
5705;DHT22;2877;48.238;11.160;2022-12-20T10:17:07;5.00;99.90
5705;DHT22;2877;48.238;11.160;2022-12-20T10:19:56;5.10;99.90
5705;DHT22;2877;48.238;11.160;2022-12-20T10:22:39;5.10;99.90
5705;DHT22;2877;48.238;11.160;2022-12-20T10:27:44;5.20;99.90
5705;DHT22;2877;48.238;11.160;2022-12-20T10:30:17;5.20;99.90
5705;DHT22;2877;48.238;11.160;2022-12-20T10:32:48;5.20;99.90
5705;DHT22;2877;48.238;11.160;2022-12-20T10:37:56;5.30;99.90
5705;DHT22;2877;48.238;11.160;2022-12-20T10:40:32;5.30;99.90
5705;DHT22;2877;48.238;11.160;2022-12-20T10:42:58;5.30;99.90
5705;DHT22;2877;48.238;11.160;2022-12-20T10:45:35;5.30;99.90
5705;DHT22;2877;48.238;11.160;2022-12-20T10:48:22;5.30;99.90
5705;DHT22;2877;48.238;11.160;2022-12-20T10:51:01;5.30;99.90
5705;DHT22;2877;48.238;11.160;2022-12-20T10:53:31;5.40;99.90
5705;DHT22;2877;48.238;11.160;2022-12-20T10:56:17;5.40;99.90
5705;DHT22;2877;48.238;11.160;2022-12-20T11:01:32;5.50;99.90
5705;DHT22;2877;48.238;11.160;2022-12-20T11:04:06;5.50;99.90
5705;DHT22;2877;48.238;11.160;2022-12-20T11:06:44;5.60;99.90
5705;DHT22;2877;48.238;11.160;2022-12-20T11:09:29;5.70;99.90
5705;DHT22;2877;48.238;11.160;2022-12-20T11:14:31;5.90;99.90
5705;DHT22;2877;48.238;11.160;2022-12-20T11:16:59;6.10;99.90
5705;DHT22;2877;48.238;11.160;2022-12-20T11:19:37;6.20;99.90
5705;DHT22;2877;48.238;11.160;2022-12-20T11:27:44;6.40;99.90
5705;DHT22;2877;48.238;11.160;2022-12-20T11:30:18;6.60;99.90
5705;DHT22;2877;48.238;11.160;2022-12-20T11:38:22;6.80;99.90
5705;DHT22;2877;48.238;11.160;2022-12-20T11:46:35;7.10;99.90
5705;DHT22;2877;48.238;11.160;2022-12-20T11:51:48;7.10;99.90
5705;DHT22;2877;48.238;11.160;2022-12-20T11:54:40;7.00;99.90
5705;DHT22;2877;48.238;11.160;2022-12-20T11:57:15;7.00;99.90
5705;DHT22;2877;48.238;11.160;2022-12-20T11:59:46;7.00;99.90
5705;DHT22;2877;48.238;11.160;2022-12-20T12:02:42;7.00;99.90
5705;DHT22;2877;48.238;11.160;2022-12-20T12:05:22;6.90;99.90
5705;DHT22;2877;48.238;11.160;2022-12-20T12:08:00;6.80;99.90
5705;DHT22;2877;48.238;11.160;2022-12-20T12:10:30;6.60;99.90
5705;DHT22;2877;48.238;11.160;2022-12-20T12:13:14;6.60;99.90
5705;DHT22;2877;48.238;11.160;2022-12-20T12:15:53;6.60;99.90
5705;DHT22;2877;48.238;11.160;2022-12-20T12:18:30;6.70;99.90
5705;DHT22;2877;48.238;11.160;2022-12-20T12:26:38;6.70;99.90
5705;DHT22;2877;48.238;11.160;2022-12-20T12:29:12;6.60;99.90
5705;DHT22;2877;48.238;11.160;2022-12-20T12:31:45;6.40;99.90
5705;DHT22;2877;48.238;11.160;2022-12-20T12:45:14;6.30;99.90
5705;DHT22;2877;48.238;11.160;2022-12-20T12:47:48;6.00;99.90
5705;DHT22;2877;48.238;11.160;2022-12-20T12:50:32;5.80;99.90
5705;DHT22;2877;48.238;11.160;2022-12-20T12:53:21;5.70;99.90
5705;DHT22;2877;48.238;11.160;2022-12-20T12:55:50;5.70;99.90
5705;DHT22;2877;48.238;11.160;2022-12-20T13:00:51;5.60;99.90
5705;DHT22;2877;48.238;11.160;2022-12-20T13:09:16;5.60;99.90
5705;DHT22;2877;48.238;11.160;2022-12-20T13:11:42;5.50;99.90
5705;DHT22;2877;48.238;11.160;2022-12-20T13:16:50;5.60;99.90
5705;DHT22;2877;48.238;11.160;2022-12-20T13:19:30;5.60;99.90
5705;DHT22;2877;48.238;11.160;2022-12-20T13:24:57;5.60;99.90
5705;DHT22;2877;48.238;11.160;2022-12-20T13:43:24;5.20;99.90
5705;DHT22;2877;48.238;11.160;2022-12-20T13:48:49;5.20;99.90
5705;DHT22;2877;48.238;11.160;2022-12-20T13:51:18;5.30;99.90
5705;DHT22;2877;48.238;11.160;2022-12-20T13:54:04;5.40;99.90
5705;DHT22;2877;48.238;11.160;2022-12-20T14:01:55;5.60;99.90
5705;DHT22;2877;48.238;11.160;2022-12-20T14:04:23;5.60;99.90
5705;DHT22;2877;48.238;11.160;2022-12-20T14:06:52;5.60;99.90
5705;DHT22;2877;48.238;11.160;2022-12-20T14:09:45;5.50;99.90
5705;DHT22;2877;48.238;11.160;2022-12-20T14:12:16;5.40;99.90
5705;DHT22;2877;48.238;11.160;2022-12-20T14:14:44;5.30;99.90
5705;DHT22;2877;48.238;11.160;2022-12-20T14:17:29;5.30;99.90
5705;DHT22;2877;48.238;11.160;2022-12-20T14:22:27;4.80;99.90
5705;DHT22;2877;48.238;11.160;2022-12-20T14:24:53;4.60;99.90
5705;DHT22;2877;48.238;11.160;2022-12-20T14:27:18;4.50;99.90
5705;DHT22;2877;48.238;11.160;2022-12-20T14:29:44;4.40;99.90
5705;DHT22;2877;48.238;11.160;2022-12-20T14:32:17;4.30;99.90
5705;DHT22;2877;48.238;11.160;2022-12-20T14:34:44;4.20;99.90
5705;DHT22;2877;48.238;11.160;2022-12-20T14:39:55;4.10;99.90
5705;DHT22;2877;48.238;11.160;2022-12-20T14:42:21;4.00;99.90
5705;DHT22;2877;48.238;11.160;2022-12-20T14:44:47;3.90;99.90
5705;DHT22;2877;48.238;11.160;2022-12-20T14:47:26;3.70;99.90
5705;DHT22;2877;48.238;11.160;2022-12-20T14:50:04;3.60;99.90
5705;DHT22;2877;48.238;11.160;2022-12-20T14:52:37;3.50;99.90
5705;DHT22;2877;48.238;11.160;2022-12-20T14:57:54;3.30;99.90
5705;DHT22;2877;48.238;11.160;2022-12-20T15:00:26;3.20;99.90
5705;DHT22;2877;48.238;11.160;2022-12-20T15:13:14;2.90;99.90
5705;DHT22;2877;48.238;11.160;2022-12-20T15:15:40;2.90;99.90
5705;DHT22;2877;48.238;11.160;2022-12-20T15:18:17;2.80;99.90
5705;DHT22;2877;48.238;11.160;2022-12-20T15:20:45;2.80;99.90
5705;DHT22;2877;48.238;11.160;2022-12-20T15:23:16;2.80;99.90
5705;DHT22;2877;48.238;11.160;2022-12-20T15:25:42;2.80;99.90
5705;DHT22;2877;48.238;11.160;2022-12-20T15:28:14;2.70;99.90
5705;DHT22;2877;48.238;11.160;2022-12-20T15:30:39;2.60;99.90
5705;DHT22;2877;48.238;11.160;2022-12-20T15:33:05;2.60;99.90
5705;DHT22;2877;48.238;11.160;2022-12-20T15:35:32;2.60;99.90
5705;DHT22;2877;48.238;11.160;2022-12-20T15:37:57;2.50;99.90
5705;DHT22;2877;48.238;11.160;2022-12-20T15:40:23;2.50;99.90
5705;DHT22;2877;48.238;11.160;2022-12-20T15:42:50;2.50;99.90
5705;DHT22;2877;48.238;11.160;2022-12-20T15:45:16;2.40;99.90
5705;DHT22;2877;48.238;11.160;2022-12-20T15:47:41;2.40;99.90
5705;DHT22;2877;48.238;11.160;2022-12-20T15:50:08;2.30;99.90
5705;DHT22;2877;48.238;11.160;2022-12-20T15:52:34;2.20;99.90
5705;DHT22;2877;48.238;11.160;2022-12-20T15:55:00;2.20;99.90
5705;DHT22;2877;48.238;11.160;2022-12-20T15:57:25;2.20;99.90
5705;DHT22;2877;48.238;11.160;2022-12-20T15:59:52;2.20;99.90
5705;DHT22;2877;48.238;11.160;2022-12-20T16:02:22;2.20;99.90
5705;DHT22;2877;48.238;11.160;2022-12-20T16:04:49;2.20;99.90
5705;DHT22;2877;48.238;11.160;2022-12-20T16:07:15;2.20;99.90
5705;DHT22;2877;48.238;11.160;2022-12-20T16:09:41;2.10;99.90
5705;DHT22;2877;48.238;11.160;2022-12-20T16:12:27;2.20;99.90
5705;DHT22;2877;48.238;11.160;2022-12-20T16:14:53;2.20;99.90
5705;DHT22;2877;48.238;11.160;2022-12-20T16:17:19;2.20;99.90
5705;DHT22;2877;48.238;11.160;2022-12-20T16:19:45;2.20;99.90
5705;DHT22;2877;48.238;11.160;2022-12-20T16:22:18;2.20;99.90
5705;DHT22;2877;48.238;11.160;2022-12-20T16:24:44;2.20;99.90
5705;DHT22;2877;48.238;11.160;2022-12-20T16:27:10;2.20;99.90
5705;DHT22;2877;48.238;11.160;2022-12-20T16:29:36;2.20;99.90
5705;DHT22;2877;48.238;11.160;2022-12-20T16:32:01;2.20;99.90
5705;DHT22;2877;48.238;11.160;2022-12-20T16:34:28;2.20;99.90
5705;DHT22;2877;48.238;11.160;2022-12-20T16:36:53;2.10;99.90
5705;DHT22;2877;48.238;11.160;2022-12-20T16:39:19;2.10;99.90
5705;DHT22;2877;48.238;11.160;2022-12-20T16:41:45;2.10;99.90
5705;DHT22;2877;48.238;11.160;2022-12-20T16:44:13;2.00;99.90
5705;DHT22;2877;48.238;11.160;2022-12-20T16:46:38;2.00;99.90
5705;DHT22;2877;48.238;11.160;2022-12-20T16:49:04;2.00;99.90
5705;DHT22;2877;48.238;11.160;2022-12-20T16:51:48;2.10;99.90
5705;DHT22;2877;48.238;11.160;2022-12-20T16:54:16;2.10;99.90
5705;DHT22;2877;48.238;11.160;2022-12-20T16:56:42;2.20;99.90
5705;DHT22;2877;48.238;11.160;2022-12-20T16:59:11;2.20;99.90
5705;DHT22;2877;48.238;11.160;2022-12-20T17:01:38;2.20;99.90
5705;DHT22;2877;48.238;11.160;2022-12-20T17:04:12;2.20;99.90
5705;DHT22;2877;48.238;11.160;2022-12-20T17:06:37;2.20;99.90
5705;DHT22;2877;48.238;11.160;2022-12-20T17:09:03;2.20;99.90
5705;DHT22;2877;48.238;11.160;2022-12-20T17:11:29;2.20;99.90
5705;DHT22;2877;48.238;11.160;2022-12-20T17:13:59;2.20;99.90
5705;DHT22;2877;48.238;11.160;2022-12-20T17:16:26;2.20;99.90
5705;DHT22;2877;48.238;11.160;2022-12-20T17:18:53;2.30;99.90
5705;DHT22;2877;48.238;11.160;2022-12-20T17:21:43;2.20;99.90
5705;DHT22;2877;48.238;11.160;2022-12-20T17:24:18;2.20;99.90
5705;DHT22;2877;48.238;11.160;2022-12-20T17:26:44;2.20;99.90
5705;DHT22;2877;48.238;11.160;2022-12-20T17:29:10;2.20;99.90
5705;DHT22;2877;48.238;11.160;2022-12-20T17:31:40;2.20;99.90
5705;DHT22;2877;48.238;11.160;2022-12-20T17:36:49;2.10;99.90
5705;DHT22;2877;48.238;11.160;2022-12-20T17:39:15;2.10;99.90
5705;DHT22;2877;48.238;11.160;2022-12-20T17:41:42;2.10;99.90
5705;DHT22;2877;48.238;11.160;2022-12-20T17:44:22;2.00;99.90
5705;DHT22;2877;48.238;11.160;2022-12-20T17:46:48;2.00;99.90
5705;DHT22;2877;48.238;11.160;2022-12-20T17:49:14;2.10;99.90
5705;DHT22;2877;48.238;11.160;2022-12-20T17:51:40;2.10;99.90
5705;DHT22;2877;48.238;11.160;2022-12-20T17:56:42;2.00;99.90
5705;DHT22;2877;48.238;11.160;2022-12-20T17:59:08;2.00;99.90
5705;DHT22;2877;48.238;11.160;2022-12-20T18:01:34;2.10;99.90
5705;DHT22;2877;48.238;11.160;2022-12-20T18:04:03;2.00;99.90
5705;DHT22;2877;48.238;11.160;2022-12-20T18:06:33;2.00;99.90
5705;DHT22;2877;48.238;11.160;2022-12-20T18:08:59;1.90;99.90
5705;DHT22;2877;48.238;11.160;2022-12-20T18:11:27;1.90;99.90
5705;DHT22;2877;48.238;11.160;2022-12-20T18:13:55;1.90;99.90
5705;DHT22;2877;48.238;11.160;2022-12-20T18:16:26;1.90;99.90
5705;DHT22;2877;48.238;11.160;2022-12-20T18:18:52;2.00;99.90
5705;DHT22;2877;48.238;11.160;2022-12-20T18:21:19;2.00;99.90
5705;DHT22;2877;48.238;11.160;2022-12-20T18:23:46;2.00;99.90
5705;DHT22;2877;48.238;11.160;2022-12-20T18:26:29;2.00;99.90
5705;DHT22;2877;48.238;11.160;2022-12-20T18:28:57;2.00;99.90